sensor_id;sensor_type;location;lat;lon;timestamp;temperature;humidity
16287;DHT22;8251;53.568;10.018;2023-07-31T00:01:02;19.10;90.90
16287;DHT22;8251;53.568;10.018;2023-07-31T00:03:29;19.10;90.90
16287;DHT22;8251;53.568;10.018;2023-07-31T00:05:55;19.10;90.90
16287;DHT22;8251;53.568;10.018;2023-07-31T00:08:22;19.10;91.00
16287;DHT22;8251;53.568;10.018;2023-07-31T00:10:51;19.20;91.00
16287;DHT22;8251;53.568;10.018;2023-07-31T00:13:19;19.20;90.90
16287;DHT22;8251;53.568;10.018;2023-07-31T00:15:46;19.10;90.60
16287;DHT22;8251;53.568;10.018;2023-07-31T00:18:15;19.10;90.60
16287;DHT22;8251;53.568;10.018;2023-07-31T00:20:42;19.20;90.70
16287;DHT22;8251;53.568;10.018;2023-07-31T00:23:08;19.20;90.80
16287;DHT22;8251;53.568;10.018;2023-07-31T00:25:36;19.20;90.90
16287;DHT22;8251;53.568;10.018;2023-07-31T00:28:03;19.20;90.80
16287;DHT22;8251;53.568;10.018;2023-07-31T00:30:30;19.30;90.70
16287;DHT22;8251;53.568;10.018;2023-07-31T00:32:57;19.20;90.70
16287;DHT22;8251;53.568;10.018;2023-07-31T00:35:26;19.30;90.80
16287;DHT22;8251;53.568;10.018;2023-07-31T00:37:53;19.30;90.70
16287;DHT22;8251;53.568;10.018;2023-07-31T00:40:20;19.30;90.70
16287;DHT22;8251;53.568;10.018;2023-07-31T00:42:47;19.40;90.50
16287;DHT22;8251;53.568;10.018;2023-07-31T00:45:13;19.50;90.40
16287;DHT22;8251;53.568;10.018;2023-07-31T00:47:40;19.40;90.20
16287;DHT22;8251;53.568;10.018;2023-07-31T00:50:08;19.40;90.20
16287;DHT22;8251;53.568;10.018;2023-07-31T00:52:36;19.50;89.80
16287;DHT22;8251;53.568;10.018;2023-07-31T00:55:04;19.50;89.60
16287;DHT22;8251;53.568;10.018;2023-07-31T00:57:32;19.50;89.50
16287;DHT22;8251;53.568;10.018;2023-07-31T01:00:00;19.50;89.20
16287;DHT22;8251;53.568;10.018;2023-07-31T01:02:27;19.50;89.40
16287;DHT22;8251;53.568;10.018;2023-07-31T01:04:54;19.50;89.30
16287;DHT22;8251;53.568;10.018;2023-07-31T01:07:25;19.50;89.30
16287;DHT22;8251;53.568;10.018;2023-07-31T01:10:02;19.60;89.20
16287;DHT22;8251;53.568;10.018;2023-07-31T01:12:33;19.60;89.00
16287;DHT22;8251;53.568;10.018;2023-07-31T01:15:04;19.60;89.10
16287;DHT22;8251;53.568;10.018;2023-07-31T01:17:32;19.60;89.20
16287;DHT22;8251;53.568;10.018;2023-07-31T01:20:02;19.50;88.80
16287;DHT22;8251;53.568;10.018;2023-07-31T01:23:08;19.60;88.80
16287;DHT22;8251;53.568;10.018;2023-07-31T01:26:05;19.60;89.00
16287;DHT22;8251;53.568;10.018;2023-07-31T01:28:42;19.60;89.30
16287;DHT22;8251;53.568;10.018;2023-07-31T01:31:14;19.60;89.40
16287;DHT22;8251;53.568;10.018;2023-07-31T01:33:41;19.60;89.80
16287;DHT22;8251;53.568;10.018;2023-07-31T01:36:08;19.60;90.10
16287;DHT22;8251;53.568;10.018;2023-07-31T01:38:35;19.60;90.20
16287;DHT22;8251;53.568;10.018;2023-07-31T01:41:03;19.60;90.30
16287;DHT22;8251;53.568;10.018;2023-07-31T01:43:31;19.70;90.40
16287;DHT22;8251;53.568;10.018;2023-07-31T01:45:58;19.70;90.50
16287;DHT22;8251;53.568;10.018;2023-07-31T01:48:25;19.70;90.40
16287;DHT22;8251;53.568;10.018;2023-07-31T01:50:51;19.70;90.50
16287;DHT22;8251;53.568;10.018;2023-07-31T01:53:18;19.70;90.40
16287;DHT22;8251;53.568;10.018;2023-07-31T01:55:45;19.60;90.60
16287;DHT22;8251;53.568;10.018;2023-07-31T01:58:13;19.70;90.60
16287;DHT22;8251;53.568;10.018;2023-07-31T02:00:40;19.70;90.70
16287;DHT22;8251;53.568;10.018;2023-07-31T02:03:06;19.60;90.80
16287;DHT22;8251;53.568;10.018;2023-07-31T02:05:35;19.60;90.80
16287;DHT22;8251;53.568;10.018;2023-07-31T02:08:02;19.70;90.80
16287;DHT22;8251;53.568;10.018;2023-07-31T02:10:28;19.70;90.80
16287;DHT22;8251;53.568;10.018;2023-07-31T02:12:55;19.70;90.70
16287;DHT22;8251;53.568;10.018;2023-07-31T02:15:24;19.80;90.60
16287;DHT22;8251;53.568;10.018;2023-07-31T02:17:51;19.80;90.60
16287;DHT22;8251;53.568;10.018;2023-07-31T02:20:17;19.80;90.70
16287;DHT22;8251;53.568;10.018;2023-07-31T02:22:45;19.70;90.60
16287;DHT22;8251;53.568;10.018;2023-07-31T02:25:11;19.70;90.70
16287;DHT22;8251;53.568;10.018;2023-07-31T02:27:38;19.70;90.70
16287;DHT22;8251;53.568;10.018;2023-07-31T02:30:06;19.80;90.60
16287;DHT22;8251;53.568;10.018;2023-07-31T02:32:34;19.80;90.70
16287;DHT22;8251;53.568;10.018;2023-07-31T02:35:01;19.80;90.70
16287;DHT22;8251;53.568;10.018;2023-07-31T02:37:28;19.80;90.60
16287;DHT22;8251;53.568;10.018;2023-07-31T02:39:55;19.80;90.60
16287;DHT22;8251;53.568;10.018;2023-07-31T02:42:21;19.80;90.50
16287;DHT22;8251;53.568;10.018;2023-07-31T02:44:48;19.80;90.50
16287;DHT22;8251;53.568;10.018;2023-07-31T02:47:17;19.80;90.60
16287;DHT22;8251;53.568;10.018;2023-07-31T02:49:46;19.80;90.70
16287;DHT22;8251;53.568;10.018;2023-07-31T02:52:13;19.80;90.80
16287;DHT22;8251;53.568;10.018;2023-07-31T02:54:40;19.80;90.90
16287;DHT22;8251;53.568;10.018;2023-07-31T02:57:06;19.80;91.00
16287;DHT22;8251;53.568;10.018;2023-07-31T02:59:33;19.80;91.00
16287;DHT22;8251;53.568;10.018;2023-07-31T03:02:00;19.80;91.00
16287;DHT22;8251;53.568;10.018;2023-07-31T03:04:27;19.80;90.90
16287;DHT22;8251;53.568;10.018;2023-07-31T03:06:55;19.80;90.90
16287;DHT22;8251;53.568;10.018;2023-07-31T03:09:22;19.90;91.00
16287;DHT22;8251;53.568;10.018;2023-07-31T03:11:48;19.90;90.80
16287;DHT22;8251;53.568;10.018;2023-07-31T03:14:15;19.90;90.80
16287;DHT22;8251;53.568;10.018;2023-07-31T03:16:42;19.90;90.90
16287;DHT22;8251;53.568;10.018;2023-07-31T03:19:09;19.80;90.80
16287;DHT22;8251;53.568;10.018;2023-07-31T03:21:35;19.80;90.90
16287;DHT22;8251;53.568;10.018;2023-07-31T03:24:04;19.80;91.00
16287;DHT22;8251;53.568;10.018;2023-07-31T03:26:31;19.80;91.00
16287;DHT22;8251;53.568;10.018;2023-07-31T03:28:58;19.80;90.90
16287;DHT22;8251;53.568;10.018;2023-07-31T03:31:25;19.80;91.00
16287;DHT22;8251;53.568;10.018;2023-07-31T03:33:52;19.80;91.00
16287;DHT22;8251;53.568;10.018;2023-07-31T03:36:18;19.80;91.10
16287;DHT22;8251;53.568;10.018;2023-07-31T03:38:46;19.80;91.10
16287;DHT22;8251;53.568;10.018;2023-07-31T03:41:14;19.80;91.10
16287;DHT22;8251;53.568;10.018;2023-07-31T03:43:40;19.80;90.90
16287;DHT22;8251;53.568;10.018;2023-07-31T03:46:06;19.80;91.00
16287;DHT22;8251;53.568;10.018;2023-07-31T03:48:34;19.80;91.20
16287;DHT22;8251;53.568;10.018;2023-07-31T03:51:01;19.80;91.20
16287;DHT22;8251;53.568;10.018;2023-07-31T03:53:27;19.80;91.20
16287;DHT22;8251;53.568;10.018;2023-07-31T03:55:54;19.80;91.20
16287;DHT22;8251;53.568;10.018;2023-07-31T03:58:23;19.80;91.30
16287;DHT22;8251;53.568;10.018;2023-07-31T04:00:49;19.90;91.40
16287;DHT22;8251;53.568;10.018;2023-07-31T04:03:16;19.80;91.30
16287;DHT22;8251;53.568;10.018;2023-07-31T04:05:43;19.80;91.30
16287;DHT22;8251;53.568;10.018;2023-07-31T04:08:09;19.80;91.30
16287;DHT22;8251;53.568;10.018;2023-07-31T04:10:36;19.70;91.00
16287;DHT22;8251;53.568;10.018;2023-07-31T04:13:03;19.70;91.10
16287;DHT22;8251;53.568;10.018;2023-07-31T04:15:31;19.60;91.40
16287;DHT22;8251;53.568;10.018;2023-07-31T04:17:58;19.60;91.60
16287;DHT22;8251;53.568;10.018;2023-07-31T04:20:25;19.70;91.60
16287;DHT22;8251;53.568;10.018;2023-07-31T04:22:52;19.60;91.70
16287;DHT22;8251;53.568;10.018;2023-07-31T04:25:19;19.70;91.70
16287;DHT22;8251;53.568;10.018;2023-07-31T04:27:45;19.70;91.80
16287;DHT22;8251;53.568;10.018;2023-07-31T04:30:12;19.70;91.80
16287;DHT22;8251;53.568;10.018;2023-07-31T04:32:40;19.70;91.80
16287;DHT22;8251;53.568;10.018;2023-07-31T04:35:07;19.70;91.80
16287;DHT22;8251;53.568;10.018;2023-07-31T04:37:34;19.70;91.80
16287;DHT22;8251;53.568;10.018;2023-07-31T04:40:01;19.70;91.80
16287;DHT22;8251;53.568;10.018;2023-07-31T04:42:28;19.80;91.90
16287;DHT22;8251;53.568;10.018;2023-07-31T04:44:55;19.70;91.90
16287;DHT22;8251;53.568;10.018;2023-07-31T04:47:22;19.70;92.00
16287;DHT22;8251;53.568;10.018;2023-07-31T04:49:50;19.70;91.90
16287;DHT22;8251;53.568;10.018;2023-07-31T04:52:17;19.70;92.10
16287;DHT22;8251;53.568;10.018;2023-07-31T04:54:44;19.70;92.20
16287;DHT22;8251;53.568;10.018;2023-07-31T04:57:11;19.60;92.30
16287;DHT22;8251;53.568;10.018;2023-07-31T04:59:37;19.70;92.30
16287;DHT22;8251;53.568;10.018;2023-07-31T05:02:05;19.70;92.40
16287;DHT22;8251;53.568;10.018;2023-07-31T05:04:32;19.70;92.40
16287;DHT22;8251;53.568;10.018;2023-07-31T05:07:00;19.70;92.40
16287;DHT22;8251;53.568;10.018;2023-07-31T05:09:27;19.70;92.50
16287;DHT22;8251;53.568;10.018;2023-07-31T05:11:53;19.70;92.50
16287;DHT22;8251;53.568;10.018;2023-07-31T05:14:20;19.70;92.50
16287;DHT22;8251;53.568;10.018;2023-07-31T05:16:47;19.70;92.50
16287;DHT22;8251;53.568;10.018;2023-07-31T05:19:14;19.70;92.60
16287;DHT22;8251;53.568;10.018;2023-07-31T05:21:41;19.70;92.60
16287;DHT22;8251;53.568;10.018;2023-07-31T05:24:09;19.70;92.40
16287;DHT22;8251;53.568;10.018;2023-07-31T05:26:36;19.70;92.50
16287;DHT22;8251;53.568;10.018;2023-07-31T05:29:03;19.70;92.50
16287;DHT22;8251;53.568;10.018;2023-07-31T05:31:30;19.70;92.50
16287;DHT22;8251;53.568;10.018;2023-07-31T05:33:57;19.70;92.60
16287;DHT22;8251;53.568;10.018;2023-07-31T05:36:24;19.60;92.60
16287;DHT22;8251;53.568;10.018;2023-07-31T05:38:51;19.60;92.70
16287;DHT22;8251;53.568;10.018;2023-07-31T05:41:19;19.60;92.80
16287;DHT22;8251;53.568;10.018;2023-07-31T05:43:46;19.60;92.80
16287;DHT22;8251;53.568;10.018;2023-07-31T05:46:13;19.60;92.60
16287;DHT22;8251;53.568;10.018;2023-07-31T05:48:40;19.60;92.80
16287;DHT22;8251;53.568;10.018;2023-07-31T05:51:07;19.60;92.80
16287;DHT22;8251;53.568;10.018;2023-07-31T05:53:33;19.60;92.70
16287;DHT22;8251;53.568;10.018;2023-07-31T05:56:01;19.60;92.80
16287;DHT22;8251;53.568;10.018;2023-07-31T05:58:29;19.60;92.80
16287;DHT22;8251;53.568;10.018;2023-07-31T06:00:56;19.60;92.80
16287;DHT22;8251;53.568;10.018;2023-07-31T06:03:23;19.70;92.80
16287;DHT22;8251;53.568;10.018;2023-07-31T06:05:50;19.70;92.80
16287;DHT22;8251;53.568;10.018;2023-07-31T06:08:17;19.70;92.70
16287;DHT22;8251;53.568;10.018;2023-07-31T06:10:43;19.70;92.70
16287;DHT22;8251;53.568;10.018;2023-07-31T06:13:12;19.70;92.80
16287;DHT22;8251;53.568;10.018;2023-07-31T06:15:45;19.70;92.90
16287;DHT22;8251;53.568;10.018;2023-07-31T06:18:13;19.70;92.90
16287;DHT22;8251;53.568;10.018;2023-07-31T06:20:40;19.80;93.00
16287;DHT22;8251;53.568;10.018;2023-07-31T06:23:08;19.80;92.90
16287;DHT22;8251;53.568;10.018;2023-07-31T06:25:34;19.80;92.90
16287;DHT22;8251;53.568;10.018;2023-07-31T06:28:03;19.80;92.90
16287;DHT22;8251;53.568;10.018;2023-07-31T06:30:30;19.80;92.70
16287;DHT22;8251;53.568;10.018;2023-07-31T06:32:58;19.80;93.00
16287;DHT22;8251;53.568;10.018;2023-07-31T06:35:25;19.80;93.00
16287;DHT22;8251;53.568;10.018;2023-07-31T06:37:51;19.80;93.10
16287;DHT22;8251;53.568;10.018;2023-07-31T06:40:19;19.80;93.10
16287;DHT22;8251;53.568;10.018;2023-07-31T06:42:46;19.80;93.10
16287;DHT22;8251;53.568;10.018;2023-07-31T06:45:13;19.80;93.00
16287;DHT22;8251;53.568;10.018;2023-07-31T06:47:40;19.90;93.00
16287;DHT22;8251;53.568;10.018;2023-07-31T06:50:08;19.80;93.00
16287;DHT22;8251;53.568;10.018;2023-07-31T06:52:35;19.90;92.90
16287;DHT22;8251;53.568;10.018;2023-07-31T06:55:03;19.90;93.00
16287;DHT22;8251;53.568;10.018;2023-07-31T06:57:30;19.90;93.00
16287;DHT22;8251;53.568;10.018;2023-07-31T06:59:57;19.90;93.00
16287;DHT22;8251;53.568;10.018;2023-07-31T07:02:23;19.90;93.10
16287;DHT22;8251;53.568;10.018;2023-07-31T07:04:50;19.90;92.80
16287;DHT22;8251;53.568;10.018;2023-07-31T07:07:19;19.90;93.00
16287;DHT22;8251;53.568;10.018;2023-07-31T07:09:46;19.80;93.10
16287;DHT22;8251;53.568;10.018;2023-07-31T07:12:12;19.90;93.10
16287;DHT22;8251;53.568;10.018;2023-07-31T07:14:40;19.80;93.00
16287;DHT22;8251;53.568;10.018;2023-07-31T07:17:07;19.90;93.10
16287;DHT22;8251;53.568;10.018;2023-07-31T07:19:34;19.90;93.10
16287;DHT22;8251;53.568;10.018;2023-07-31T07:22:00;20.00;93.20
16287;DHT22;8251;53.568;10.018;2023-07-31T07:24:29;20.00;93.40
16287;DHT22;8251;53.568;10.018;2023-07-31T07:26:56;20.00;93.30
16287;DHT22;8251;53.568;10.018;2023-07-31T07:29:23;20.00;93.30
16287;DHT22;8251;53.568;10.018;2023-07-31T07:31:49;20.10;93.40
16287;DHT22;8251;53.568;10.018;2023-07-31T07:34:16;20.10;93.50
16287;DHT22;8251;53.568;10.018;2023-07-31T07:36:43;20.20;93.50
16287;DHT22;8251;53.568;10.018;2023-07-31T07:39:10;20.20;93.50
16287;DHT22;8251;53.568;10.018;2023-07-31T07:41:39;20.10;93.50
16287;DHT22;8251;53.568;10.018;2023-07-31T07:44:07;20.20;93.60
16287;DHT22;8251;53.568;10.018;2023-07-31T07:46:34;20.20;93.60
16287;DHT22;8251;53.568;10.018;2023-07-31T07:49:01;20.10;93.60
16287;DHT22;8251;53.568;10.018;2023-07-31T07:51:30;20.10;93.60
16287;DHT22;8251;53.568;10.018;2023-07-31T07:53:58;20.10;93.60
16287;DHT22;8251;53.568;10.018;2023-07-31T07:56:26;20.10;93.70
16287;DHT22;8251;53.568;10.018;2023-07-31T07:58:54;20.10;93.70
16287;DHT22;8251;53.568;10.018;2023-07-31T08:01:22;20.10;93.70
16287;DHT22;8251;53.568;10.018;2023-07-31T08:03:49;20.10;93.80
16287;DHT22;8251;53.568;10.018;2023-07-31T08:06:17;20.10;93.80
16287;DHT22;8251;53.568;10.018;2023-07-31T08:08:44;20.10;93.80
16287;DHT22;8251;53.568;10.018;2023-07-31T08:11:12;20.20;93.80
16287;DHT22;8251;53.568;10.018;2023-07-31T08:13:39;20.20;93.90
16287;DHT22;8251;53.568;10.018;2023-07-31T08:16:08;20.20;93.90
16287;DHT22;8251;53.568;10.018;2023-07-31T08:19:02;20.20;93.90
16287;DHT22;8251;53.568;10.018;2023-07-31T08:21:56;20.20;93.90
16287;DHT22;8251;53.568;10.018;2023-07-31T08:24:28;20.20;93.90
16287;DHT22;8251;53.568;10.018;2023-07-31T08:26:55;20.30;93.90
16287;DHT22;8251;53.568;10.018;2023-07-31T08:29:22;20.30;94.00
16287;DHT22;8251;53.568;10.018;2023-07-31T08:31:50;20.30;94.00
16287;DHT22;8251;53.568;10.018;2023-07-31T08:34:17;20.30;94.00
16287;DHT22;8251;53.568;10.018;2023-07-31T08:36:44;20.40;94.10
16287;DHT22;8251;53.568;10.018;2023-07-31T08:39:11;20.40;94.10
16287;DHT22;8251;53.568;10.018;2023-07-31T08:41:38;20.40;94.10
16287;DHT22;8251;53.568;10.018;2023-07-31T08:44:06;20.50;94.20
16287;DHT22;8251;53.568;10.018;2023-07-31T08:46:34;20.50;94.20
16287;DHT22;8251;53.568;10.018;2023-07-31T08:49:04;20.50;93.80
16287;DHT22;8251;53.568;10.018;2023-07-31T08:51:34;20.50;93.90
16287;DHT22;8251;53.568;10.018;2023-07-31T08:54:01;20.60;94.00
16287;DHT22;8251;53.568;10.018;2023-07-31T08:56:29;20.60;93.90
16287;DHT22;8251;53.568;10.018;2023-07-31T08:58:58;20.60;93.90
16287;DHT22;8251;53.568;10.018;2023-07-31T09:01:26;20.60;93.80
16287;DHT22;8251;53.568;10.018;2023-07-31T09:03:56;20.70;93.80
16287;DHT22;8251;53.568;10.018;2023-07-31T09:06:26;20.70;93.90
16287;DHT22;8251;53.568;10.018;2023-07-31T09:08:55;20.80;93.90
16287;DHT22;8251;53.568;10.018;2023-07-31T09:11:21;20.80;93.90
16287;DHT22;8251;53.568;10.018;2023-07-31T09:13:50;20.80;93.80
16287;DHT22;8251;53.568;10.018;2023-07-31T09:16:17;20.80;93.80
16287;DHT22;8251;53.568;10.018;2023-07-31T09:18:53;20.90;93.80
16287;DHT22;8251;53.568;10.018;2023-07-31T09:21:20;20.80;93.60
16287;DHT22;8251;53.568;10.018;2023-07-31T09:23:49;20.80;93.60
16287;DHT22;8251;53.568;10.018;2023-07-31T09:26:29;20.80;93.70
16287;DHT22;8251;53.568;10.018;2023-07-31T09:28:56;20.80;93.60
16287;DHT22;8251;53.568;10.018;2023-07-31T09:31:32;20.80;93.60
16287;DHT22;8251;53.568;10.018;2023-07-31T09:33:59;20.80;93.30
16287;DHT22;8251;53.568;10.018;2023-07-31T09:36:29;20.70;93.40
16287;DHT22;8251;53.568;10.018;2023-07-31T09:39:01;20.70;93.40
16287;DHT22;8251;53.568;10.018;2023-07-31T09:41:28;20.70;93.50
16287;DHT22;8251;53.568;10.018;2023-07-31T09:43:55;20.70;93.70
16287;DHT22;8251;53.568;10.018;2023-07-31T09:46:22;20.70;93.80
16287;DHT22;8251;53.568;10.018;2023-07-31T09:48:49;20.70;93.80
16287;DHT22;8251;53.568;10.018;2023-07-31T09:51:16;20.60;93.70
16287;DHT22;8251;53.568;10.018;2023-07-31T09:53:50;20.60;93.70
16287;DHT22;8251;53.568;10.018;2023-07-31T09:56:20;20.70;93.70
16287;DHT22;8251;53.568;10.018;2023-07-31T09:58:48;20.60;93.10
16287;DHT22;8251;53.568;10.018;2023-07-31T10:01:15;20.60;93.20
16287;DHT22;8251;53.568;10.018;2023-07-31T10:03:44;20.60;93.40
16287;DHT22;8251;53.568;10.018;2023-07-31T10:06:12;20.60;93.40
16287;DHT22;8251;53.568;10.018;2023-07-31T10:08:42;20.60;93.40
16287;DHT22;8251;53.568;10.018;2023-07-31T10:11:11;20.60;93.60
16287;DHT22;8251;53.568;10.018;2023-07-31T10:13:41;20.70;93.70
16287;DHT22;8251;53.568;10.018;2023-07-31T10:16:09;20.70;93.70
16287;DHT22;8251;53.568;10.018;2023-07-31T10:18:36;20.70;93.70
16287;DHT22;8251;53.568;10.018;2023-07-31T10:21:04;20.70;93.70
16287;DHT22;8251;53.568;10.018;2023-07-31T10:23:31;20.70;93.80
16287;DHT22;8251;53.568;10.018;2023-07-31T10:25:59;20.80;93.80
16287;DHT22;8251;53.568;10.018;2023-07-31T10:28:27;20.80;93.80
16287;DHT22;8251;53.568;10.018;2023-07-31T10:30:57;20.80;93.90
16287;DHT22;8251;53.568;10.018;2023-07-31T10:33:24;20.80;93.60
16287;DHT22;8251;53.568;10.018;2023-07-31T10:36:14;20.80;93.60
16287;DHT22;8251;53.568;10.018;2023-07-31T10:38:42;20.80;93.50
16287;DHT22;8251;53.568;10.018;2023-07-31T10:41:09;20.80;93.70
16287;DHT22;8251;53.568;10.018;2023-07-31T10:43:36;20.70;93.60
16287;DHT22;8251;53.568;10.018;2023-07-31T10:46:07;20.70;93.80
16287;DHT22;8251;53.568;10.018;2023-07-31T10:48:35;20.70;93.80
16287;DHT22;8251;53.568;10.018;2023-07-31T10:51:07;20.70;93.90
16287;DHT22;8251;53.568;10.018;2023-07-31T10:53:38;20.70;94.00
16287;DHT22;8251;53.568;10.018;2023-07-31T10:56:09;20.70;94.10
16287;DHT22;8251;53.568;10.018;2023-07-31T10:58:38;20.60;94.00
16287;DHT22;8251;53.568;10.018;2023-07-31T11:01:07;20.60;94.00
16287;DHT22;8251;53.568;10.018;2023-07-31T11:03:45;20.60;94.00
16287;DHT22;8251;53.568;10.018;2023-07-31T11:06:12;20.50;93.90
16287;DHT22;8251;53.568;10.018;2023-07-31T11:08:44;20.50;93.90
16287;DHT22;8251;53.568;10.018;2023-07-31T11:11:13;20.50;94.10
16287;DHT22;8251;53.568;10.018;2023-07-31T11:13:42;20.50;94.10
16287;DHT22;8251;53.568;10.018;2023-07-31T11:16:11;20.50;94.10
16287;DHT22;8251;53.568;10.018;2023-07-31T11:18:40;20.50;94.20
16287;DHT22;8251;53.568;10.018;2023-07-31T11:21:12;20.50;94.30
16287;DHT22;8251;53.568;10.018;2023-07-31T11:23:39;20.60;94.40
16287;DHT22;8251;53.568;10.018;2023-07-31T11:26:07;20.60;94.40
16287;DHT22;8251;53.568;10.018;2023-07-31T11:28:34;20.70;94.50
16287;DHT22;8251;53.568;10.018;2023-07-31T11:31:02;20.60;94.50
16287;DHT22;8251;53.568;10.018;2023-07-31T11:33:30;20.70;94.60
16287;DHT22;8251;53.568;10.018;2023-07-31T11:35:57;20.70;94.70
16287;DHT22;8251;53.568;10.018;2023-07-31T11:38:25;20.70;94.80
16287;DHT22;8251;53.568;10.018;2023-07-31T11:40:52;20.70;94.90
16287;DHT22;8251;53.568;10.018;2023-07-31T11:43:21;20.70;94.90
16287;DHT22;8251;53.568;10.018;2023-07-31T11:45:48;20.80;94.90
16287;DHT22;8251;53.568;10.018;2023-07-31T11:48:20;20.70;94.80
16287;DHT22;8251;53.568;10.018;2023-07-31T11:50:50;20.70;94.80
16287;DHT22;8251;53.568;10.018;2023-07-31T11:53:20;20.70;94.80
16287;DHT22;8251;53.568;10.018;2023-07-31T11:55:48;20.70;94.80
16287;DHT22;8251;53.568;10.018;2023-07-31T11:58:16;20.60;94.60
16287;DHT22;8251;53.568;10.018;2023-07-31T12:00:44;20.60;94.70
16287;DHT22;8251;53.568;10.018;2023-07-31T12:03:11;20.50;94.70
16287;DHT22;8251;53.568;10.018;2023-07-31T12:05:38;20.50;95.00
16287;DHT22;8251;53.568;10.018;2023-07-31T12:08:11;20.50;95.10
16287;DHT22;8251;53.568;10.018;2023-07-31T12:10:38;20.50;94.80
16287;DHT22;8251;53.568;10.018;2023-07-31T12:13:07;20.40;94.70
16287;DHT22;8251;53.568;10.018;2023-07-31T12:15:37;20.30;94.70
16287;DHT22;8251;53.568;10.018;2023-07-31T12:18:06;20.30;94.80
16287;DHT22;8251;53.568;10.018;2023-07-31T12:20:33;20.30;94.50
16287;DHT22;8251;53.568;10.018;2023-07-31T12:23:01;20.20;94.60
16287;DHT22;8251;53.568;10.018;2023-07-31T12:25:33;20.20;94.60
16287;DHT22;8251;53.568;10.018;2023-07-31T12:28:06;20.20;94.80
16287;DHT22;8251;53.568;10.018;2023-07-31T12:30:38;20.30;94.70
16287;DHT22;8251;53.568;10.018;2023-07-31T12:33:06;20.20;94.80
16287;DHT22;8251;53.568;10.018;2023-07-31T12:35:41;20.30;94.90
16287;DHT22;8251;53.568;10.018;2023-07-31T12:38:08;20.30;94.80
16287;DHT22;8251;53.568;10.018;2023-07-31T12:40:37;20.30;94.90
16287;DHT22;8251;53.568;10.018;2023-07-31T12:43:05;20.40;94.90
16287;DHT22;8251;53.568;10.018;2023-07-31T12:45:31;20.40;94.90
16287;DHT22;8251;53.568;10.018;2023-07-31T12:47:58;20.40;94.80
16287;DHT22;8251;53.568;10.018;2023-07-31T12:50:25;20.40;94.80
16287;DHT22;8251;53.568;10.018;2023-07-31T12:52:53;20.40;94.90
16287;DHT22;8251;53.568;10.018;2023-07-31T12:55:20;20.40;94.80
16287;DHT22;8251;53.568;10.018;2023-07-31T12:57:48;20.40;94.70
16287;DHT22;8251;53.568;10.018;2023-07-31T13:00:15;20.40;94.70
16287;DHT22;8251;53.568;10.018;2023-07-31T13:02:42;20.40;94.90
16287;DHT22;8251;53.568;10.018;2023-07-31T13:05:10;20.40;94.90
16287;DHT22;8251;53.568;10.018;2023-07-31T13:07:36;20.40;94.80
16287;DHT22;8251;53.568;10.018;2023-07-31T13:10:04;20.50;94.80
16287;DHT22;8251;53.568;10.018;2023-07-31T13:12:31;20.40;94.80
16287;DHT22;8251;53.568;10.018;2023-07-31T13:14:59;20.40;94.80
16287;DHT22;8251;53.568;10.018;2023-07-31T13:17:26;20.40;94.90
16287;DHT22;8251;53.568;10.018;2023-07-31T13:19:53;20.40;95.00
16287;DHT22;8251;53.568;10.018;2023-07-31T13:22:20;20.40;94.90
16287;DHT22;8251;53.568;10.018;2023-07-31T13:24:47;20.40;94.90
16287;DHT22;8251;53.568;10.018;2023-07-31T13:27:14;20.40;95.00
16287;DHT22;8251;53.568;10.018;2023-07-31T13:29:42;20.40;94.90
16287;DHT22;8251;53.568;10.018;2023-07-31T13:32:10;20.50;95.00
16287;DHT22;8251;53.568;10.018;2023-07-31T13:34:37;20.40;95.00
16287;DHT22;8251;53.568;10.018;2023-07-31T13:37:04;20.40;95.10
16287;DHT22;8251;53.568;10.018;2023-07-31T13:39:31;20.50;95.10
16287;DHT22;8251;53.568;10.018;2023-07-31T13:41:58;20.40;95.10
16287;DHT22;8251;53.568;10.018;2023-07-31T13:44:25;20.50;95.10
16287;DHT22;8251;53.568;10.018;2023-07-31T13:46:52;20.40;95.10
16287;DHT22;8251;53.568;10.018;2023-07-31T13:49:20;20.50;95.20
16287;DHT22;8251;53.568;10.018;2023-07-31T13:51:47;20.40;95.30
16287;DHT22;8251;53.568;10.018;2023-07-31T13:54:13;20.50;95.30
16287;DHT22;8251;53.568;10.018;2023-07-31T13:56:41;20.50;95.40
16287;DHT22;8251;53.568;10.018;2023-07-31T13:59:08;20.50;95.40
16287;DHT22;8251;53.568;10.018;2023-07-31T14:01:34;20.50;95.40
16287;DHT22;8251;53.568;10.018;2023-07-31T14:04:01;20.50;95.40
16287;DHT22;8251;53.568;10.018;2023-07-31T14:06:30;20.50;95.50
16287;DHT22;8251;53.568;10.018;2023-07-31T14:08:56;20.60;95.60
16287;DHT22;8251;53.568;10.018;2023-07-31T14:11:23;20.60;95.60
16287;DHT22;8251;53.568;10.018;2023-07-31T14:13:50;20.60;95.60
16287;DHT22;8251;53.568;10.018;2023-07-31T14:16:17;20.70;95.70
16287;DHT22;8251;53.568;10.018;2023-07-31T14:18:44;20.70;95.80
16287;DHT22;8251;53.568;10.018;2023-07-31T14:21:11;20.70;95.80
16287;DHT22;8251;53.568;10.018;2023-07-31T14:23:40;20.70;95.90
16287;DHT22;8251;53.568;10.018;2023-07-31T14:26:07;20.80;95.90
16287;DHT22;8251;53.568;10.018;2023-07-31T14:28:34;20.80;95.80
16287;DHT22;8251;53.568;10.018;2023-07-31T14:31:01;20.80;95.90
16287;DHT22;8251;53.568;10.018;2023-07-31T14:33:29;20.70;95.80
16287;DHT22;8251;53.568;10.018;2023-07-31T14:35:56;20.80;96.00
16287;DHT22;8251;53.568;10.018;2023-07-31T14:38:23;20.80;96.30
16287;DHT22;8251;53.568;10.018;2023-07-31T14:40:51;20.80;96.00
16287;DHT22;8251;53.568;10.018;2023-07-31T14:43:18;20.80;96.00
16287;DHT22;8251;53.568;10.018;2023-07-31T14:45:45;20.90;96.10
16287;DHT22;8251;53.568;10.018;2023-07-31T14:48:12;20.80;96.50
16287;DHT22;8251;53.568;10.018;2023-07-31T14:50:39;20.70;96.80
16287;DHT22;8251;53.568;10.018;2023-07-31T14:53:06;20.70;97.10
16287;DHT22;8251;53.568;10.018;2023-07-31T14:55:33;20.60;97.20
16287;DHT22;8251;53.568;10.018;2023-07-31T14:58:02;20.50;97.60
16287;DHT22;8251;53.568;10.018;2023-07-31T15:00:29;20.50;97.90
16287;DHT22;8251;53.568;10.018;2023-07-31T15:02:55;20.50;98.30
16287;DHT22;8251;53.568;10.018;2023-07-31T15:05:22;20.50;98.70
16287;DHT22;8251;53.568;10.018;2023-07-31T15:07:49;20.40;98.60
16287;DHT22;8251;53.568;10.018;2023-07-31T15:10:16;20.40;98.60
16287;DHT22;8251;53.568;10.018;2023-07-31T15:12:42;20.50;98.60
16287;DHT22;8251;53.568;10.018;2023-07-31T15:15:11;20.50;98.50
16287;DHT22;8251;53.568;10.018;2023-07-31T15:17:38;20.40;98.30
16287;DHT22;8251;53.568;10.018;2023-07-31T15:20:06;20.40;98.40
16287;DHT22;8251;53.568;10.018;2023-07-31T15:22:33;20.50;98.50
16287;DHT22;8251;53.568;10.018;2023-07-31T15:24:59;20.50;98.50
16287;DHT22;8251;53.568;10.018;2023-07-31T15:27:26;20.50;98.60
16287;DHT22;8251;53.568;10.018;2023-07-31T15:29:53;20.40;98.40
16287;DHT22;8251;53.568;10.018;2023-07-31T15:32:21;20.50;98.50
16287;DHT22;8251;53.568;10.018;2023-07-31T15:34:49;20.50;98.50